Terminal Aerodrome Forecast
Issued by NWS

Home | Current Version | Previous Version | Text Only | Print | Product List | Glossary On
Versions: 1 2 3 4 5 6 7 8 9 10 11 12 13 14
000
FTUS46 KSEW 311700
TAFOLM
TAF
KOLM 311735Z 3118/0118 02007KT P6SM SCT250
     FM010300 00000KT P6SM SCT250
     FM011400 VRB03KT P6SM SCT120=

USA.gov is the U.S. government's official web portal to all federal, state and local government web resources and services.